Time;durP1;ratioP1;P1;durP2;ratioP2;P2;SDS_P1;SDS_P2;PMS_P1;PMS_P2;Temp;Humidity;BMP_temperature;BMP_pressure;BME280_temperature;BME280_humidity;BME280_pressure;Samples;Min_cycle;Max_cycle;Signal;HPM_P1;HPM_P2
2024/02/26 00:01:58;;;;;;;4.45;2.50;;;;;;;6.50;63.63;96713.91;4958639;28;103248;-64
2024/02/26 00:04:27;;;;;;;7.28;2.95;;;;;;;6.48;63.91;96711.47;4960503;28;102637;-65
2024/02/26 00:06:55;;;;;;;5.07;2.50;;;;;;;6.44;63.47;96705.78;4952225;28;102719;-64
2024/02/26 00:09:24;;;;;;;6.00;2.28;;;;;;;6.54;63.43;96707.28;4937038;28;105693;-64
2024/02/26 00:11:52;;;;;;;7.47;3.58;;;;;;;6.31;64.21;96710.94;4948723;28;105676;-65
2024/02/26 00:14:20;;;;;;;6.78;2.35;;;;;;;6.08;65.20;96704.06;4938912;28;102842;-65
2024/02/26 00:16:48;;;;;;;6.88;2.30;;;;;;;6.03;65.73;96708.28;4963413;28;103488;-65
2024/02/26 00:19:16;;;;;;;3.50;2.00;;;;;;;5.90;66.13;96706.31;4961870;28;103231;-64
2024/02/26 00:34:44;;;;;;;2.53;1.35;;;;;;;6.22;64.89;96701.56;4959962;28;102971;-64
2024/02/26 00:37:12;;;;;;;2.25;1.20;;;;;;;6.38;64.38;96696.03;4941197;28;103458;-65
2024/02/26 00:39:40;;;;;;;3.03;1.50;;;;;;;6.38;64.71;96695.22;4935057;28;103125;-64
2024/02/26 00:46:35;;;;;;;2.08;1.40;;;;;;;6.40;64.28;96699.28;4953716;28;102903;-65
2024/02/26 00:49:03;;;;;;;2.95;1.23;;;;;;;6.53;64.12;96697.75;4952497;28;103161;-63
2024/02/26 00:51:35;;;;;;;3.33;1.30;;;;;;;6.60;63.97;96698.59;4959535;28;102912;-63
2024/02/26 00:54:03;;;;;;;2.53;1.40;;;;;;;6.56;63.75;96703.44;4968946;28;102810;-64
2024/02/26 00:56:31;;;;;;;4.82;1.50;;;;;;;6.47;63.64;96696.69;4958424;28;103242;-63
2024/02/26 00:58:59;;;;;;;2.58;1.63;;;;;;;6.52;63.93;96701.38;4956404;28;103327;-64
2024/02/26 01:01:27;;;;;;;5.60;2.72;;;;;;;6.20;64.49;96693.06;4959854;28;102638;-64
2024/02/26 01:03:55;;;;;;;29.10;12.60;;;;;;;6.36;63.66;96703.28;4955289;28;103168;-64
2024/02/26 01:06:23;;;;;;;56.53;22.50;;;;;;;6.35;64.26;96696.41;4936051;28;106099;-64
2024/02/26 01:08:53;;;;;;;30.23;11.93;;;;;;;6.41;63.54;96695.66;4951473;28;103314;-63
2024/02/26 01:11:21;;;;;;;18.23;7.43;;;;;;;6.36;64.09;96702.50;4941417;28;102970;-63
2024/02/26 01:13:53;;;;;;;17.00;7.28;;;;;;;6.60;63.15;96709.13;4960182;28;102736;-62
2024/02/26 01:16:21;;;;;;;20.60;5.35;;;;;;;6.21;64.50;96699.94;4956529;28;104180;-63
2024/02/26 01:18:49;;;;;;;5.60;2.50;;;;;;;5.94;68.02;96686.53;4950829;28;103285;-62
2024/02/26 01:21:17;;;;;;;4.88;2.38;;;;;;;6.16;65.21;96686.53;4958008;28;102725;-62
2024/02/26 01:23:45;;;;;;;4.03;2.00;;;;;;;6.13;64.83;96680.66;4954550;28;102744;-62
2024/02/26 01:26:14;;;;;;;3.50;1.80;;;;;;;6.19;64.79;96686.19;4958337;28;103927;-62
2024/02/26 01:28:42;;;;;;;5.53;2.28;;;;;;;6.23;64.24;96697.94;4959494;28;103452;-62
2024/02/26 01:36:00;;;;;;;3.58;1.67;;;;;;;6.04;65.59;96684.44;4958109;28;103068;-62
2024/02/26 01:38:28;;;;;;;4.20;1.80;;;;;;;6.26;65.11;96701.00;4960462;28;108211;-62
2024/02/26 01:45:49;;;;;;;3.88;2.15;;;;;;;5.86;66.86;96697.19;4953006;28;103087;-63
2024/02/26 01:48:17;;;;;;;4.18;1.85;;;;;;;5.73;67.19;96697.84;4952632;28;104080;-63
2024/02/26 01:50:45;;;;;;;4.47;1.65;;;;;;;5.98;65.21;96695.69;4950253;28;103275;-63
2024/02/26 01:53:14;;;;;;;2.10;1.33;;;;;;;6.24;64.39;96715.34;4956157;28;103542;-63
2024/02/26 01:55:42;;;;;;;2.22;1.45;;;;;;;6.40;64.03;96736.09;4942963;28;103120;-63
2024/02/26 01:58:11;;;;;;;2.78;1.40;;;;;;;6.35;63.84;96727.16;4962689;28;102698;-63
2024/02/26 02:00:40;;;;;;;3.38;1.40;;;;;;;6.41;64.36;96721.94;4948394;28;107058;-63
2024/02/26 02:03:09;;;;;;;3.28;1.85;;;;;;;6.25;64.83;96733.53;4938662;28;106291;-63
2024/02/26 02:05:41;;;;;;;2.85;1.27;;;;;;;6.32;64.25;96723.09;4956927;28;103596;-63
2024/02/26 02:08:11;;;;;;;3.38;1.45;;;;;;;6.40;64.38;96730.81;4958148;28;102661;-63
2024/02/26 02:10:40;;;;;;;3.15;1.60;;;;;;;6.56;63.90;96728.94;4961017;28;103970;-63
2024/02/26 02:13:08;;;;;;;2.58;1.17;;;;;;;6.62;63.35;96733.44;4951277;28;103220;-63
2024/02/26 02:15:36;;;;;;;2.90;1.30;;;;;;;6.68;63.38;96742.38;4947419;28;103141;-63
2024/02/26 02:18:04;;;;;;;4.88;1.85;;;;;;;6.67;63.76;96752.09;4955779;28;102642;-63
2024/02/26 02:20:35;;;;;;;2.92;1.45;;;;;;;6.69;63.56;96744.00;4959504;28;103347;-63
2024/02/26 03:07:43;;;;;;;3.63;1.65;;;;;;;6.27;67.36;96751.75;4952712;28;103135;-64
2024/02/26 03:10:13;;;;;;;4.45;1.70;;;;;;;6.41;66.64;96744.81;4958972;28;103200;-64
2024/02/26 03:12:44;;;;;;;4.28;1.98;;;;;;;6.37;66.60;96752.25;4954600;28;103286;-64
2024/02/26 03:15:12;;;;;;;4.22;1.90;;;;;;;6.52;65.52;96760.06;4962270;28;102673;-65
2024/02/26 03:17:40;;;;;;;6.10;2.22;;;;;;;6.57;66.16;96752.41;4959667;28;103099;-64
2024/02/26 03:42:06;;;;;;;6.18;1.95;;;;;;;5.90;69.49;96735.22;4949622;28;102819;-64
2024/02/26 03:44:34;;;;;;;4.45;1.90;;;;;;;5.87;69.84;96728.50;4954481;28;103727;-64
2024/02/26 03:47:02;;;;;;;3.90;1.88;;;;;;;5.74;69.56;96717.88;4957308;28;102647;-64
2024/02/26 03:49:30;;;;;;;3.53;1.70;;;;;;;5.57;70.48;96707.59;4969027;28;105417;-64
2024/02/26 03:52:00;;;;;;;2.13;1.60;;;;;;;5.58;71.09;96705.75;4956055;28;103182;-64
2024/02/26 03:54:28;;;;;;;8.57;1.83;;;;;;;5.52;71.34;96696.81;4930770;28;102752;-64
2024/02/26 03:56:56;;;;;;;3.00;1.73;;;;;;;5.39;70.67;96700.09;4956096;28;102661;-64
2024/02/26 03:59:26;;;;;;;4.88;1.83;;;;;;;5.77;69.50;96706.97;4958266;28;103379;-64
2024/02/26 04:01:54;;;;;;;3.35;1.92;;;;;;;5.82;69.03;96707.25;4952313;28;103194;-64
2024/02/26 04:04:22;;;;;;;3.95;1.70;;;;;;;5.61;69.18;96705.41;4951914;28;102608;-64
2024/02/26 04:06:50;;;;;;;2.42;1.48;;;;;;;5.78;68.88;96701.53;4947573;28;103111;-63
2024/02/26 04:09:18;;;;;;;3.47;1.55;;;;;;;6.03;68.10;96718.78;4955357;28;104086;-63
2024/02/26 04:11:46;;;;;;;2.97;1.73;;;;;;;5.93;67.12;96729.56;4943699;28;106524;-63
2024/02/26 04:14:14;;;;;;;3.15;1.40;;;;;;;5.98;67.26;96724.59;4936011;28;102688;-63
2024/02/26 04:21:24;;;;;;;2.97;1.25;;;;;;;6.00;66.97;96713.91;4951982;28;102987;-65
2024/02/26 04:23:54;;;;;;;4.63;1.65;;;;;;;5.91;66.58;96700.06;4960761;28;103318;-65
2024/02/26 04:26:22;;;;;;;3.88;1.52;;;;;;;5.61;67.97;96708.84;4958781;28;102683;-65
2024/02/26 04:33:16;;;;;;;2.45;1.35;;;;;;;5.44;68.73;96689.06;4955979;28;102892;-64
2024/02/26 04:35:45;;;;;;;3.33;1.77;;;;;;;5.51;67.64;96689.13;4940718;28;103436;-65
2024/02/26 04:38:14;;;;;;;3.78;1.52;;;;;;;5.77;67.07;96689.41;4937493;28;102715;-65
2024/02/26 04:40:42;;;;;;;3.42;1.45;;;;;;;5.77;67.79;96705.16;4950005;28;104776;-65
2024/02/26 04:43:10;;;;;;;3.95;1.55;;;;;;;5.72;67.26;96710.16;4955048;28;103207;-65
2024/02/26 04:45:40;;;;;;;2.90;1.40;;;;;;;5.77;65.99;96710.41;4952263;28;103365;-65
2024/02/26 04:48:08;;;;;;;3.60;1.50;;;;;;;5.97;65.17;96707.16;4951305;28;102827;-65
2024/02/26 04:50:38;;;;;;;2.90;1.70;;;;;;;5.88;64.24;96710.91;4950934;28;103017;-65
2024/02/26 04:53:06;;;;;;;7.38;1.92;;;;;;;6.04;64.75;96710.72;4948359;28;104819;-65
2024/02/26 04:55:37;;;;;;;3.58;1.50;;;;;;;5.85;65.38;96695.53;4951334;28;103170;-63
2024/02/26 05:02:39;;;;;;;2.58;1.30;;;;;;;5.98;66.36;96700.94;4956709;28;102625;-64
2024/02/26 05:05:09;;;;;;;2.40;1.40;;;;;;;6.19;65.58;96712.47;4936971;28;105649;-65
2024/02/26 05:07:40;;;;;;;2.80;1.67;;;;;;;5.91;66.72;96705.31;4946307;28;106293;-64
2024/02/26 05:10:09;;;;;;;4.57;1.77;;;;;;;5.61;67.70;96710.66;4952636;28;102694;-64
2024/02/26 05:12:38;;;;;;;3.30;1.80;;;;;;;5.50;69.00;96711.13;4945622;28;103114;-64
2024/02/26 05:15:10;;;;;;;4.85;1.70;;;;;;;5.54;67.98;96709.75;4939418;28;103264;-64
2024/02/26 05:17:39;;;;;;;3.00;1.60;;;;;;;5.57;67.84;96709.41;4922642;28;103435;-64
2024/02/26 05:20:10;;;;;;;4.53;1.48;;;;;;;5.82;67.00;96718.53;4938925;28;103079;-65
2024/02/26 05:22:38;;;;;;;2.60;1.50;;;;;;;5.90;65.96;96717.63;4945341;28;102702;-65
2024/02/26 05:25:07;;;;;;;2.63;1.40;;;;;;;6.09;65.49;96718.84;4939006;28;103411;-65
2024/02/26 05:27:35;;;;;;;2.72;1.50;;;;;;;6.22;65.33;96717.31;4950238;28;103164;-64
2024/02/26 05:30:06;;;;;;;3.08;1.52;;;;;;;5.98;66.39;96712.25;4942115;28;102970;-65
2024/02/26 05:32:34;;;;;;;2.60;1.30;;;;;;;6.09;65.97;96728.53;4948010;28;102746;-63
2024/02/26 05:35:03;;;;;;;3.40;1.40;;;;;;;6.07;65.46;96726.09;4943229;28;103220;-64
2024/02/26 05:37:32;;;;;;;2.85;1.42;;;;;;;6.22;65.57;96727.84;4952332;28;103385;-64
2024/02/26 05:40:00;;;;;;;2.38;1.35;;;;;;;6.29;65.26;96740.03;4931099;28;103197;-64
2024/02/26 05:42:28;;;;;;;3.17;1.50;;;;;;;6.26;65.70;96744.88;4949348;28;102996;-63
2024/02/26 05:44:56;;;;;;;3.55;1.33;;;;;;;6.39;65.30;96760.78;4931313;28;104386;-64
2024/02/26 05:47:26;;;;;;;2.85;1.50;;;;;;;6.45;64.62;96765.25;4948069;28;103193;-64
2024/02/26 05:54:19;;;;;;;4.90;2.05;;;;;;;6.34;66.39;96773.69;4938856;28;102673;-64
2024/02/26 05:56:48;;;;;;;2.47;1.42;;;;;;;6.39;67.32;96781.81;4943372;28;103490;-64
2024/02/26 05:59:17;;;;;;;3.42;1.40;;;;;;;6.35;67.68;96779.75;4942325;28;103215;-64
2024/02/26 06:01:45;;;;;;;5.60;1.55;;;;;;;6.04;71.09;96778.22;4937279;28;102886;-64
2024/02/26 06:04:20;;;;;;;4.15;1.65;;;;;;;5.71;71.02;96776.00;4937897;28;102754;-65
2024/02/26 06:06:49;;;;;;;4.05;1.70;;;;;;;5.78;70.54;96780.34;4930121;28;103714;-64
2024/02/26 06:09:24;;;;;;;2.78;1.70;;;;;;;6.05;70.29;96783.31;4951405;28;103208;-64
2024/02/26 06:11:58;;;;;;;6.97;1.90;;;;;;;5.46;72.60;96782.41;4958800;28;102793;-64
2024/02/26 06:14:28;;;;;;;5.70;2.10;;;;;;;5.38;74.08;96763.28;4944125;28;102712;-64
2024/02/26 06:17:07;;;;;;;4.65;2.05;;;;;;;5.73;72.63;96774.81;4940892;28;105790;-65
2024/02/26 06:19:37;;;;;;;2.67;1.55;;;;;;;5.88;72.38;96782.69;4942342;28;103289;-65
2024/02/26 06:22:05;;;;;;;3.75;1.77;;;;;;;5.76;72.34;96786.78;4951080;28;102692;-63
2024/02/26 06:24:33;;;;;;;9.07;2.13;;;;;;;5.89;72.94;96788.75;4940642;28;103147;-63
2024/02/26 06:27:15;;;;;;;3.72;1.92;;;;;;;5.90;72.85;96785.13;4946732;28;103277;-64
2024/02/26 06:29:55;;;;;;;2.70;1.48;;;;;;;6.08;71.71;96780.28;4899217;28;103418;-65
2024/02/26 06:36:57;;;;;;;3.20;1.60;;;;;;;5.79;74.12;96781.16;4922122;28;102955;-64
2024/02/26 06:39:25;;;;;;;4.78;1.75;;;;;;;5.99;73.23;96789.28;4953259;28;103654;-64
2024/02/26 06:41:59;;;;;;;4.70;1.83;;;;;;;6.12;73.14;96786.81;4931803;28;105869;-64
2024/02/26 06:44:31;;;;;;;3.25;1.50;;;;;;;6.18;72.66;96789.69;4949652;28;102653;-64
2024/02/26 06:47:00;;;;;;;8.18;2.00;;;;;;;6.19;73.15;96783.44;4950633;28;102917;-63
2024/02/26 06:49:28;;;;;;;3.78;1.80;;;;;;;6.13;73.25;96788.44;4958270;28;103450;-64
2024/02/26 06:52:01;;;;;;;3.47;1.83;;;;;;;6.13;72.57;96793.69;4935397;28;110327;-64
2024/02/26 06:54:29;;;;;;;2.97;1.38;;;;;;;6.24;72.73;96800.25;4937233;28;103354;-63
2024/02/26 06:56:57;;;;;;;3.72;1.85;;;;;;;6.30;72.02;96803.94;4954429;28;103078;-63
2024/02/26 06:59:25;;;;;;;5.45;2.45;;;;;;;6.33;72.49;96808.84;4920054;28;105343;-63
2024/02/26 07:02:17;;;;;;;3.55;1.90;;;;;;;6.36;72.33;96808.47;4947440;28;103320;-64
2024/02/26 07:04:45;;;;;;;3.95;2.22;;;;;;;6.45;71.94;96817.06;4950838;28;103143;-63
2024/02/26 07:07:15;;;;;;;4.05;2.20;;;;;;;6.56;72.37;96834.13;4931211;28;103062;-64
2024/02/26 07:09:44;;;;;;;4.82;1.83;;;;;;;6.60;72.31;96835.38;4933264;28;103576;-63
2024/02/26 07:12:12;;;;;;;4.70;2.00;;;;;;;6.68;72.16;96848.44;4948962;28;103313;-65
2024/02/26 07:14:40;;;;;;;7.45;3.00;;;;;;;6.74;72.41;96852.91;4951779;28;102744;-65
2024/02/26 07:17:10;;;;;;;4.25;2.28;;;;;;;6.79;72.09;96855.00;4946863;28;102960;-67
2024/02/26 07:19:38;;;;;;;4.88;2.40;;;;;;;6.65;73.19;96854.06;4936084;28;106063;-66
2024/02/26 07:22:06;;;;;;;6.00;2.67;;;;;;;6.44;73.50;96853.03;4939198;28;103243;-66
2024/02/26 07:24:35;;;;;;;4.63;2.22;;;;;;;6.55;73.46;96846.50;4959155;28;102792;-67
2024/02/26 07:27:04;;;;;;;13.68;3.42;;;;;;;6.42;72.74;96854.22;4948978;28;102754;-66
2024/02/26 07:29:32;;;;;;;5.72;2.75;;;;;;;6.44;73.21;96857.50;4929846;28;103625;-67
2024/02/26 07:32:00;;;;;;;8.00;3.58;;;;;;;6.18;75.35;96855.41;4953655;28;103594;-67
2024/02/26 07:34:29;;;;;;;6.60;2.50;;;;;;;6.30;74.53;96865.25;4951915;28;102693;-65
2024/02/26 07:36:57;;;;;;;6.18;2.92;;;;;;;6.31;73.35;96863.44;4949494;28;102983;-65
2024/02/26 07:39:25;;;;;;;7.75;2.85;;;;;;;6.11;72.21;96864.03;4949159;28;103499;-65
2024/02/26 07:41:55;;;;;;;9.07;2.85;;;;;;;6.10;75.48;96867.63;4933309;28;103593;-65
2024/02/26 07:44:23;;;;;;;8.90;3.00;;;;;;;5.86;75.10;96857.44;4945621;28;102727;-66
2024/02/26 07:46:51;;;;;;;7.07;2.88;;;;;;;6.06;74.63;96860.31;4939530;28;103143;-65
2024/02/26 07:49:19;;;;;;;5.55;2.28;;;;;;;6.21;73.73;96865.53;4928734;28;103766;-65
2024/02/26 07:51:48;;;;;;;4.55;2.25;;;;;;;6.30;73.05;96867.88;4943745;28;103743;-65
2024/02/26 07:54:19;;;;;;;6.03;2.65;;;;;;;6.40;72.13;96867.56;4929677;28;102754;-66
2024/02/26 07:56:47;;;;;;;3.55;2.30;;;;;;;6.33;71.85;96865.88;4947600;28;102887;-67
2024/02/26 07:59:16;;;;;;;5.22;2.15;;;;;;;6.58;72.01;96879.50;4948883;28;103300;-67
2024/02/26 08:01:45;;;;;;;4.95;2.60;;;;;;;6.61;71.43;96882.53;4926409;28;106420;-67
2024/02/26 08:04:19;;;;;;;6.40;2.73;;;;;;;6.79;71.43;96874.22;4931260;28;103177;-65
2024/02/26 08:06:47;;;;;;;7.50;2.40;;;;;;;6.74;70.92;96873.97;4940867;28;102803;-65
2024/02/26 08:09:15;;;;;;;8.07;2.55;;;;;;;6.79;71.06;96866.31;4949271;28;103549;-65
2024/02/26 08:11:43;;;;;;;6.97;3.15;;;;;;;6.80;70.15;96862.69;4934087;28;103250;-65
2024/02/26 08:14:11;;;;;;;9.55;2.47;;;;;;;7.11;69.54;96864.16;4952106;28;102751;-65
2024/02/26 08:16:41;;;;;;;8.57;3.78;;;;;;;7.26;69.17;96865.88;4944417;28;103372;-65
2024/02/26 08:19:10;;;;;;;10.40;3.10;;;;;;;7.12;69.62;96864.97;4950878;28;103917;-65
2024/02/26 08:21:38;;;;;;;7.55;3.08;;;;;;;6.96;69.34;96861.59;4946911;28;103275;-67
2024/02/26 08:24:07;;;;;;;7.75;3.47;;;;;;;7.10;68.65;96859.91;4935325;28;102971;-67
2024/02/26 08:26:35;;;;;;;5.70;3.15;;;;;;;7.01;68.74;96861.06;4951203;28;102618;-67
2024/02/26 08:29:03;;;;;;;10.88;3.30;;;;;;;6.95;71.76;96864.44;4946287;28;103337;-67
2024/02/26 08:31:31;;;;;;;5.63;2.95;;;;;;;6.94;71.09;96858.38;4942668;28;103032;-66
2024/02/26 08:34:01;;;;;;;4.78;2.83;;;;;;;7.13;70.60;96859.50;4926932;28;103024;-67
2024/02/26 08:36:30;;;;;;;8.85;2.70;;;;;;;7.40;68.29;96862.34;4898346;28;103133;-66
2024/02/26 08:38:58;;;;;;;9.32;3.58;;;;;;;7.11;69.63;96864.16;4946068;28;103391;-67
2024/02/26 08:41:26;;;;;;;5.55;3.30;;;;;;;6.99;70.46;96860.41;4951521;28;103205;-66
2024/02/26 08:43:54;;;;;;;6.13;2.55;;;;;;;6.94;69.97;96870.69;4931022;28;103902;-65
2024/02/26 08:46:22;;;;;;;5.95;2.53;;;;;;;7.38;69.93;96871.44;4926260;28;102804;-65
2024/02/26 08:48:50;;;;;;;5.28;2.40;;;;;;;7.46;68.49;96874.72;4941787;28;103476;-65
2024/02/26 08:51:20;;;;;;;3.70;2.05;;;;;;;7.72;68.99;96883.78;4927738;28;103754;-65
2024/02/26 08:53:48;;;;;;;6.75;2.58;;;;;;;7.82;68.38;96883.47;4933292;28;102695;-65
2024/02/26 08:56:17;;;;;;;4.15;2.20;;;;;;;8.01;66.56;96886.38;4947365;28;102920;-65
2024/02/26 08:58:48;;;;;;;4.30;2.38;;;;;;;7.87;67.14;96881.03;4935088;28;103211;-67
2024/02/26 09:01:17;;;;;;;8.20;2.80;;;;;;;7.88;68.46;96885.28;4954942;28;103338;-67
2024/02/26 09:03:47;;;;;;;11.13;2.60;;;;;;;8.02;67.08;96888.81;4953334;28;102771;-62
2024/02/26 09:06:16;;;;;;;8.68;3.13;;;;;;;7.61;67.04;96887.78;4950281;28;102773;-64
2024/02/26 09:08:45;;;;;;;6.00;3.00;;;;;;;7.19;68.82;96880.81;4955990;28;103469;-66
2024/02/26 09:11:13;;;;;;;7.82;2.90;;;;;;;7.33;68.55;96882.53;4934388;28;106367;-65
2024/02/26 09:13:42;;;;;;;5.43;2.83;;;;;;;7.57;69.85;96883.94;4941440;28;103577;-65
2024/02/26 09:16:10;;;;;;;13.18;3.00;;;;;;;7.55;69.29;96882.50;4937091;28;102686;-65
2024/02/26 09:18:38;;;;;;;5.50;2.70;;;;;;;7.39;68.75;96886.22;4934940;28;106436;-66
2024/02/26 09:21:07;;;;;;;6.95;2.25;;;;;;;7.46;69.41;96885.25;4937085;28;105598;-65
2024/02/26 09:23:35;;;;;;;7.50;2.53;;;;;;;7.61;68.95;96884.31;4953718;28;103124;-65
2024/02/26 09:26:06;;;;;;;6.55;2.55;;;;;;;7.72;68.21;96883.00;4943662;28;102688;-65
2024/02/26 09:28:37;;;;;;;7.43;2.70;;;;;;;7.87;68.14;96877.59;4949189;28;104864;-65
2024/02/26 09:31:06;;;;;;;8.95;2.88;;;;;;;7.58;67.70;96882.09;4947623;28;103607;-65
2024/02/26 09:33:34;;;;;;;5.30;2.30;;;;;;;7.69;67.36;96875.47;4954907;28;102725;-65
2024/02/26 09:36:03;;;;;;;4.90;2.45;;;;;;;7.84;67.74;96885.91;4941023;28;103139;-65
2024/02/26 09:38:31;;;;;;;4.53;2.00;;;;;;;8.02;67.17;96891.44;4943477;28;103931;-64
2024/02/26 09:41:16;;;;;;;4.78;2.08;;;;;;;7.68;68.16;96887.03;4949839;28;103969;-64
2024/02/26 09:43:46;;;;;;;3.22;1.75;;;;;;;8.02;66.95;96883.53;4939890;28;103025;-65
2024/02/26 09:46:15;;;;;;;3.75;1.88;;;;;;;8.34;67.23;96890.97;4938404;28;102632;-65
2024/02/26 09:48:45;;;;;;;4.03;1.88;;;;;;;8.51;66.38;96889.59;4949656;28;103296;-65
2024/02/26 09:51:15;;;;;;;6.55;1.90;;;;;;;8.73;67.16;96900.81;4943451;28;105307;-65
2024/02/26 09:53:45;;;;;;;4.15;1.98;;;;;;;8.81;65.46;96896.38;4942353;28;103062;-65
2024/02/26 09:56:16;;;;;;;3.78;1.77;;;;;;;8.86;64.14;96891.31;4954716;28;102757;-65
2024/02/26 09:58:45;;;;;;;6.60;2.10;;;;;;;8.91;64.41;96888.88;4951212;28;103281;-65
2024/02/26 10:01:18;;;;;;;4.18;2.10;;;;;;;8.88;65.58;96894.53;4947374;28;103310;-65
2024/02/26 10:03:49;;;;;;;5.43;2.00;;;;;;;9.25;65.55;96902.91;4928289;28;103117;-65
2024/02/26 10:06:18;;;;;;;5.68;2.25;;;;;;;9.22;64.47;96896.19;4947602;28;102591;-65
2024/02/26 10:08:46;;;;;;;5.43;2.35;;;;;;;9.17;64.69;96903.09;4933300;28;105405;-65
2024/02/26 10:11:16;;;;;;;6.53;2.80;;;;;;;8.53;64.76;96905.22;4940251;28;105701;-65
2024/02/26 10:13:44;;;;;;;5.72;2.33;;;;;;;9.04;65.02;96907.38;4957318;28;102824;-65
2024/02/26 10:16:12;;;;;;;4.03;2.00;;;;;;;9.50;64.06;96907.53;4924883;28;102958;-65
2024/02/26 10:18:46;;;;;;;3.88;1.75;;;;;;;9.90;62.42;96910.13;4939605;28;103211;-65
2024/02/26 10:21:26;;;;;;;3.78;2.00;;;;;;;10.30;63.60;96904.69;4932759;28;106082;-65
2024/02/26 10:23:57;;;;;;;3.13;1.63;;;;;;;10.04;59.94;96913.53;4957811;28;102634;-65
2024/02/26 10:26:27;;;;;;;3.67;1.90;;;;;;;10.58;59.84;96914.16;4957908;28;104097;-65
2024/02/26 10:29:00;;;;;;;4.40;1.92;;;;;;;10.61;58.02;96909.25;4953673;28;103454;-65
2024/02/26 10:31:28;;;;;;;4.68;2.10;;;;;;;10.66;58.15;96911.25;4935595;28;103624;-65
2024/02/26 10:33:57;;;;;;;4.28;2.13;;;;;;;11.01;58.06;96907.38;4952499;28;103089;-65
2024/02/26 10:36:28;;;;;;;4.00;2.08;;;;;;;10.72;56.74;96912.25;4931926;28;102830;-65
2024/02/26 10:39:15;;;;;;;3.78;1.73;;;;;;;10.98;58.36;96908.63;4941446;28;104478;-65
2024/02/26 10:41:45;;;;;;;4.75;2.05;;;;;;;11.07;55.15;96907.31;4955140;28;103170;-65
2024/02/26 10:44:14;;;;;;;3.42;1.70;;;;;;;11.14;55.62;96901.19;4939603;28;102673;-65
2024/02/26 10:46:48;;;;;;;4.55;1.83;;;;;;;11.27;55.96;96895.75;4952162;28;102709;-65
2024/02/26 10:49:19;;;;;;;3.40;1.75;;;;;;;11.33;54.27;96900.22;4950014;28;102776;-65
2024/02/26 10:51:55;;;;;;;2.85;1.65;;;;;;;11.73;55.64;96899.81;4935446;28;105365;-66
2024/02/26 10:54:26;;;;;;;3.17;1.60;;;;;;;11.66;55.09;96915.00;4951509;28;102856;-66
2024/02/26 10:56:57;;;;;;;3.30;1.58;;;;;;;11.63;53.67;96920.72;4940182;28;103073;-66
2024/02/26 10:59:25;;;;;;;3.15;1.48;;;;;;;11.34;51.91;96915.06;4953276;28;103269;-65
2024/02/26 11:01:56;;;;;;;5.32;1.40;;;;;;;11.46;50.97;96912.50;4935667;28;103299;-66
2024/02/26 11:04:27;;;;;;;3.40;1.55;;;;;;;11.89;51.18;96908.22;4930634;28;102799;-66
2024/02/26 11:06:58;;;;;;;1.88;1.10;;;;;;;11.97;49.80;96909.81;4933525;28;102991;-66
2024/02/26 11:09:28;;;;;;;4.22;1.30;;;;;;;12.06;49.05;96909.28;4957957;28;103403;-68
2024/02/26 11:11:59;;;;;;;3.90;1.40;;;;;;;12.13;49.99;96911.06;4928444;28;106301;-66
2024/02/26 11:14:30;;;;;;;4.72;1.45;;;;;;;12.33;49.49;96922.25;4953339;28;102832;-66
2024/02/26 11:17:00;;;;;;;1.52;1.17;;;;;;;12.60;47.43;96929.88;4947494;28;102963;-66
2024/02/26 11:19:31;;;;;;;1.80;1.08;;;;;;;13.06;46.60;96923.13;4960545;28;104687;-66
2024/02/26 11:22:02;;;;;;;2.38;1.33;;;;;;;13.29;48.04;96920.72;4927460;28;110723;-66
2024/02/26 11:24:45;;;;;;;3.28;1.30;;;;;;;12.47;47.77;96920.25;4935263;28;103356;-66
2024/02/26 11:27:18;;;;;;;9.68;1.48;;;;;;;12.21;47.07;96908.94;4944632;28;102840;-67
2024/02/26 11:29:53;;;;;;;2.47;1.30;;;;;;;12.28;49.08;96909.66;4928444;28;105754;-67
2024/02/26 11:32:22;;;;;;;3.05;1.40;;;;;;;12.52;47.89;96916.91;4950433;28;103173;-67
2024/02/26 11:34:50;;;;;;;3.42;1.20;;;;;;;12.62;48.66;96921.72;4952208;28;102855;-67
2024/02/26 11:37:20;;;;;;;1.92;1.20;;;;;;;11.66;47.99;96915.00;4957910;28;102794;-66
2024/02/26 11:39:52;;;;;;;2.40;1.30;;;;;;;12.01;47.92;96922.41;4950461;28;103380;-67
2024/02/26 11:42:25;;;;;;;3.67;1.38;;;;;;;12.20;47.77;96915.25;4930638;28;105054;-67
2024/02/26 11:44:55;;;;;;;2.78;1.20;;;;;;;12.50;46.13;96924.28;4951793;28;103215;-67
2024/02/26 11:47:24;;;;;;;2.75;1.30;;;;;;;12.56;46.61;96928.72;4941312;28;102846;-67
2024/02/26 11:49:52;;;;;;;2.88;1.17;;;;;;;12.23;47.53;96924.63;4951809;28;103524;-67
2024/02/26 11:52:20;;;;;;;2.70;1.20;;;;;;;12.96;48.12;96922.84;4956317;28;103663;-67
2024/02/26 11:54:49;;;;;;;2.90;0.93;;;;;;;12.75;49.05;96927.63;4953143;28;102706;-67
2024/02/26 11:57:27;;;;;;;2.55;1.10;;;;;;;12.66;47.32;96920.22;4947278;28;102837;-66
2024/02/26 11:59:56;;;;;;;2.80;1.13;;;;;;;12.46;48.67;96923.13;4949893;28;103351;-66
2024/02/26 12:02:42;;;;;;;4.85;1.30;;;;;;;12.10;48.21;96921.09;4952302;28;103200;-67
2024/02/26 12:05:13;;;;;;;3.42;1.20;;;;;;;12.26;48.58;96924.16;4949291;28;102835;-66
2024/02/26 12:07:45;;;;;;;1.90;1.10;;;;;;;12.56;48.23;96926.06;4953564;28;102759;-66
2024/02/26 12:10:18;;;;;;;2.22;1.10;;;;;;;12.31;48.76;96921.66;4921917;28;105371;-66
2024/02/26 12:12:47;;;;;;;5.47;1.40;;;;;;;11.84;49.00;96924.00;4950474;28;103235;-67
2024/02/26 12:15:17;;;;;;;4.15;1.40;;;;;;;11.47;49.40;96929.25;4946627;28;102668;-66
2024/02/26 12:17:50;;;;;;;3.35;2.20;;;;;;;11.91;50.33;96922.09;4950281;28;103205;-67
2024/02/26 12:20:20;;;;;;;5.05;1.20;;;;;;;11.35;50.45;96932.59;4945732;28;103186;-67
2024/02/26 12:22:52;;;;;;;2.80;1.30;;;;;;;11.65;50.08;96934.59;4953295;28;103346;-67
2024/02/26 12:25:24;;;;;;;4.40;1.30;;;;;;;12.00;48.61;96933.25;4946502;28;102947;-67
2024/02/26 12:27:54;;;;;;;3.60;1.10;;;;;;;11.82;49.36;96947.28;4946652;28;103238;-67
2024/02/26 12:30:23;;;;;;;2.08;1.10;;;;;;;12.22;48.85;96939.75;4941227;28;103276;-67
2024/02/26 12:32:56;;;;;;;2.92;1.25;;;;;;;11.98;49.93;96943.28;4946919;28;103425;-66
2024/02/26 12:35:28;;;;;;;2.70;1.13;;;;;;;12.19;50.81;96942.03;4930338;28;102964;-67
2024/02/26 12:37:56;;;;;;;1.50;0.98;;;;;;;12.06;50.16;96940.31;4951252;28;102826;-67
2024/02/26 12:40:24;;;;;;;3.65;1.35;;;;;;;11.98;50.78;96943.28;4946467;28;104102;-67
2024/02/26 12:42:55;;;;;;;2.60;1.27;;;;;;;12.14;51.80;96941.88;4937821;28;106029;-66
2024/02/26 12:45:28;;;;;;;2.80;1.30;;;;;;;12.10;50.70;96937.03;4950684;28;102728;-66
2024/02/26 12:48:00;;;;;;;2.47;1.20;;;;;;;12.62;48.99;96943.75;4935548;28;102715;-66
2024/02/26 12:50:41;;;;;;;1.50;1.00;;;;;;;12.84;49.41;96938.75;4939511;28;103202;-66
2024/02/26 12:53:37;;;;;;;1.77;1.20;;;;;;;12.23;50.00;96945.84;4949866;28;103870;-66
2024/02/26 12:56:12;;;;;;;3.63;1.20;;;;;;;12.37;49.47;96938.56;4907762;28;103147;-66
2024/02/26 12:58:43;;;;;;;2.45;1.10;;;;;;;12.37;48.73;96942.00;4950360;28;103140;-66
2024/02/26 13:01:16;;;;;;;2.63;1.20;;;;;;;12.77;49.19;96949.47;4954315;28;103387;-67
2024/02/26 13:03:44;;;;;;;2.55;1.10;;;;;;;13.15;49.00;96952.03;4928775;28;105226;-67
2024/02/26 13:06:19;;;;;;;;;;;;;;;13.09;48.33;96949.22;4949794;28;102791;-67
2024/02/26 13:08:47;;;;;;;4.00;1.13;;;;;;;13.28;47.92;96946.50;4950635;28;102970;-67
2024/02/26 13:11:16;;;;;;;1.60;1.17;;;;;;;12.97;48.62;96953.72;4946527;28;103226;-66
2024/02/26 13:13:49;;;;;;;4.57;1.48;;;;;;;12.80;49.63;96961.50;4933574;28;104452;-66
2024/02/26 13:16:17;;;;;;;3.42;1.35;;;;;;;12.60;51.22;96959.91;4919662;28;102830;-66
2024/02/26 13:18:46;;;;;;;4.43;1.30;;;;;;;12.66;51.01;96958.19;4957498;28;104185;-67
2024/02/26 13:21:16;;;;;;;2.75;1.15;;;;;;;12.54;51.45;96952.03;4931238;28;104484;-66
2024/02/26 13:23:50;;;;;;;2.65;1.13;;;;;;;13.01;49.74;96952.22;4933007;28;105699;-66
2024/02/26 13:26:18;;;;;;;8.90;1.20;;;;;;;12.94;49.84;96952.31;4932938;28;103047;-66
2024/02/26 13:28:47;;;;;;;3.25;1.40;;;;;;;12.71;50.90;96958.34;4945417;28;102874;-67
2024/02/26 13:31:16;;;;;;;6.65;1.38;;;;;;;12.70;50.95;96956.72;4942630;28;103340;-66
2024/02/26 13:33:48;;;;;;;4.00;1.30;;;;;;;12.73;51.41;96961.59;4944476;28;103274;-65
2024/02/26 13:36:20;;;;;;;2.88;1.38;;;;;;;12.82;51.35;96954.09;4948235;28;102785;-67
2024/02/26 13:38:54;;;;;;;4.35;1.27;;;;;;;12.63;51.26;96957.84;4937422;28;104084;-66
2024/02/26 13:41:24;;;;;;;7.13;1.50;;;;;;;12.94;51.32;96957.63;4935982;28;103398;-66